sensor_id;sensor_type;location;lat;lon;timestamp;temperature;humidity
51476;DHT22;37554;50.362;7.568;2023-10-19T00:00:46;19.00;55.20
51476;DHT22;37554;50.362;7.568;2023-10-19T00:03:15;19.00;55.30
51476;DHT22;37554;50.362;7.568;2023-10-19T00:05:41;19.00;55.30
51476;DHT22;37554;50.362;7.568;2023-10-19T00:08:13;19.00;55.30
51476;DHT22;37554;50.362;7.568;2023-10-19T00:10:40;19.00;55.40
51476;DHT22;37554;50.362;7.568;2023-10-19T00:13:08;19.00;55.50
51476;DHT22;37554;50.362;7.568;2023-10-19T00:15:35;19.00;55.60
51476;DHT22;37554;50.362;7.568;2023-10-19T00:18:05;19.00;56.20
51476;DHT22;37554;50.362;7.568;2023-10-19T00:20:53;19.00;55.70
51476;DHT22;37554;50.362;7.568;2023-10-19T00:23:23;18.90;55.70
51476;DHT22;37554;50.362;7.568;2023-10-19T00:25:59;18.90;55.80
51476;DHT22;37554;50.362;7.568;2023-10-19T00:28:26;18.90;55.80
51476;DHT22;37554;50.362;7.568;2023-10-19T00:30:52;18.90;55.90
51476;DHT22;37554;50.362;7.568;2023-10-19T00:33:19;18.90;55.90
51476;DHT22;37554;50.362;7.568;2023-10-19T00:35:46;18.90;56.00
51476;DHT22;37554;50.362;7.568;2023-10-19T00:38:13;18.90;56.10
51476;DHT22;37554;50.362;7.568;2023-10-19T00:40:58;18.90;56.10
51476;DHT22;37554;50.362;7.568;2023-10-19T00:43:33;18.90;56.20
51476;DHT22;37554;50.362;7.568;2023-10-19T00:46:04;18.90;56.20
51476;DHT22;37554;50.362;7.568;2023-10-19T00:48:36;18.90;56.30
51476;DHT22;37554;50.362;7.568;2023-10-19T00:51:03;18.90;56.40
51476;DHT22;37554;50.362;7.568;2023-10-19T00:53:47;18.80;56.40
51476;DHT22;37554;50.362;7.568;2023-10-19T00:56:15;18.80;56.40
51476;DHT22;37554;50.362;7.568;2023-10-19T00:58:43;18.80;56.50
51476;DHT22;37554;50.362;7.568;2023-10-19T01:01:21;18.80;56.60
51476;DHT22;37554;50.362;7.568;2023-10-19T01:03:47;18.80;56.60
51476;DHT22;37554;50.362;7.568;2023-10-19T01:06:17;18.80;56.60
51476;DHT22;37554;50.362;7.568;2023-10-19T01:08:45;18.80;56.80
51476;DHT22;37554;50.362;7.568;2023-10-19T01:11:12;18.80;56.80
51476;DHT22;37554;50.362;7.568;2023-10-19T01:13:41;18.80;56.90
51476;DHT22;37554;50.362;7.568;2023-10-19T01:16:14;18.80;56.90
51476;DHT22;37554;50.362;7.568;2023-10-19T01:18:49;18.80;56.90
51476;DHT22;37554;50.362;7.568;2023-10-19T01:21:22;18.80;57.00
51476;DHT22;37554;50.362;7.568;2023-10-19T01:23:50;18.80;57.90
51476;DHT22;37554;50.362;7.568;2023-10-19T01:26:16;18.80;56.90
51476;DHT22;37554;50.362;7.568;2023-10-19T01:28:51;18.70;57.00
51476;DHT22;37554;50.362;7.568;2023-10-19T01:31:26;18.70;57.00
51476;DHT22;37554;50.362;7.568;2023-10-19T01:33:56;18.70;57.10
51476;DHT22;37554;50.362;7.568;2023-10-19T01:36:26;18.70;57.20
51476;DHT22;37554;50.362;7.568;2023-10-19T01:38:57;18.70;57.20
51476;DHT22;37554;50.362;7.568;2023-10-19T01:41:27;18.70;57.30
51476;DHT22;37554;50.362;7.568;2023-10-19T01:43:53;18.70;57.30
51476;DHT22;37554;50.362;7.568;2023-10-19T01:46:21;18.70;57.40
51476;DHT22;37554;50.362;7.568;2023-10-19T01:49:00;18.70;57.50
51476;DHT22;37554;50.362;7.568;2023-10-19T01:51:28;18.70;57.50
51476;DHT22;37554;50.362;7.568;2023-10-19T01:53:55;18.70;57.60
51476;DHT22;37554;50.362;7.568;2023-10-19T01:56:22;18.70;57.70
51476;DHT22;37554;50.362;7.568;2023-10-19T01:58:48;18.70;57.70
51476;DHT22;37554;50.362;7.568;2023-10-19T02:01:15;18.70;57.80
51476;DHT22;37554;50.362;7.568;2023-10-19T02:03:58;18.70;57.90
51476;DHT22;37554;50.362;7.568;2023-10-19T02:06:25;18.70;57.90
51476;DHT22;37554;50.362;7.568;2023-10-19T02:09:13;18.70;58.00
51476;DHT22;37554;50.362;7.568;2023-10-19T02:11:45;18.70;58.10
51476;DHT22;37554;50.362;7.568;2023-10-19T02:14:12;18.70;58.20
51476;DHT22;37554;50.362;7.568;2023-10-19T02:19:07;18.70;58.20
51476;DHT22;37554;50.362;7.568;2023-10-19T02:21:33;18.70;58.40
51476;DHT22;37554;50.362;7.568;2023-10-19T02:24:03;18.60;58.30
51476;DHT22;37554;50.362;7.568;2023-10-19T02:26:29;18.60;58.40
51476;DHT22;37554;50.362;7.568;2023-10-19T02:28:57;18.60;58.50
51476;DHT22;37554;50.362;7.568;2023-10-19T02:31:24;18.60;58.50
51476;DHT22;37554;50.362;7.568;2023-10-19T02:33:54;18.60;58.60
51476;DHT22;37554;50.362;7.568;2023-10-19T02:36:29;18.60;58.60
51476;DHT22;37554;50.362;7.568;2023-10-19T02:39:03;18.60;58.60
51476;DHT22;37554;50.362;7.568;2023-10-19T02:44:07;18.60;58.80
51476;DHT22;37554;50.362;7.568;2023-10-19T02:46:35;18.60;58.90
51476;DHT22;37554;50.362;7.568;2023-10-19T02:49:05;18.60;58.90
51476;DHT22;37554;50.362;7.568;2023-10-19T02:51:35;18.60;58.90
51476;DHT22;37554;50.362;7.568;2023-10-19T02:54:02;18.60;59.00
51476;DHT22;37554;50.362;7.568;2023-10-19T02:56:28;18.60;59.00
51476;DHT22;37554;50.362;7.568;2023-10-19T02:58:56;18.60;59.10
51476;DHT22;37554;50.362;7.568;2023-10-19T03:01:27;18.60;59.10
51476;DHT22;37554;50.362;7.568;2023-10-19T03:04:01;18.60;59.20
51476;DHT22;37554;50.362;7.568;2023-10-19T03:06:28;18.60;59.20
51476;DHT22;37554;50.362;7.568;2023-10-19T03:09:04;18.60;59.30
51476;DHT22;37554;50.362;7.568;2023-10-19T03:11:41;18.60;59.30
51476;DHT22;37554;50.362;7.568;2023-10-19T03:14:07;18.60;59.40
51476;DHT22;37554;50.362;7.568;2023-10-19T03:16:34;18.60;59.40
51476;DHT22;37554;50.362;7.568;2023-10-19T03:19:00;18.50;59.50
51476;DHT22;37554;50.362;7.568;2023-10-19T03:21:26;18.60;59.60
51476;DHT22;37554;50.362;7.568;2023-10-19T03:23:58;18.60;59.60
51476;DHT22;37554;50.362;7.568;2023-10-19T03:26:27;18.60;59.70
51476;DHT22;37554;50.362;7.568;2023-10-19T03:28:56;18.50;59.70
51476;DHT22;37554;50.362;7.568;2023-10-19T03:31:24;18.50;59.70
51476;DHT22;37554;50.362;7.568;2023-10-19T03:33:51;18.50;60.40
51476;DHT22;37554;50.362;7.568;2023-10-19T03:36:23;18.50;59.90
51476;DHT22;37554;50.362;7.568;2023-10-19T03:38:49;18.50;60.00
51476;DHT22;37554;50.362;7.568;2023-10-19T03:41:17;18.50;60.00
51476;DHT22;37554;50.362;7.568;2023-10-19T03:43:48;18.50;60.00
51476;DHT22;37554;50.362;7.568;2023-10-19T03:46:14;18.50;60.10
51476;DHT22;37554;50.362;7.568;2023-10-19T03:48:50;18.50;60.10
51476;DHT22;37554;50.362;7.568;2023-10-19T03:51:16;18.50;60.20
51476;DHT22;37554;50.362;7.568;2023-10-19T03:53:43;18.50;60.20
51476;DHT22;37554;50.362;7.568;2023-10-19T03:56:19;18.50;60.20
51476;DHT22;37554;50.362;7.568;2023-10-19T03:58:45;18.50;60.30
51476;DHT22;37554;50.362;7.568;2023-10-19T04:01:15;18.50;60.30
51476;DHT22;37554;50.362;7.568;2023-10-19T04:03:42;18.50;60.40
51476;DHT22;37554;50.362;7.568;2023-10-19T04:06:09;18.50;60.50
51476;DHT22;37554;50.362;7.568;2023-10-19T04:08:40;18.50;60.50
51476;DHT22;37554;50.362;7.568;2023-10-19T04:11:06;18.50;60.60
51476;DHT22;37554;50.362;7.568;2023-10-19T04:13:38;18.50;60.70
51476;DHT22;37554;50.362;7.568;2023-10-19T04:16:04;18.50;60.70
51476;DHT22;37554;50.362;7.568;2023-10-19T04:18:34;18.50;61.50
51476;DHT22;37554;50.362;7.568;2023-10-19T04:21:00;18.50;60.80
51476;DHT22;37554;50.362;7.568;2023-10-19T04:23:28;18.50;60.90
51476;DHT22;37554;50.362;7.568;2023-10-19T04:25:55;18.50;61.00
51476;DHT22;37554;50.362;7.568;2023-10-19T04:28:24;18.50;61.10
51476;DHT22;37554;50.362;7.568;2023-10-19T04:30:59;18.40;61.10
51476;DHT22;37554;50.362;7.568;2023-10-19T04:33:32;18.40;61.20
51476;DHT22;37554;50.362;7.568;2023-10-19T04:35:59;18.40;61.20
51476;DHT22;37554;50.362;7.568;2023-10-19T04:38:27;18.40;61.20
51476;DHT22;37554;50.362;7.568;2023-10-19T04:40:53;18.40;61.30
51476;DHT22;37554;50.362;7.568;2023-10-19T04:43:18;18.40;61.30
51476;DHT22;37554;50.362;7.568;2023-10-19T04:45:46;18.40;61.40
51476;DHT22;37554;50.362;7.568;2023-10-19T04:48:12;18.40;61.40
51476;DHT22;37554;50.362;7.568;2023-10-19T04:50:38;18.40;61.60
51476;DHT22;37554;50.362;7.568;2023-10-19T04:53:05;18.40;61.60
51476;DHT22;37554;50.362;7.568;2023-10-19T04:55:30;18.40;61.60
51476;DHT22;37554;50.362;7.568;2023-10-19T04:57:56;18.40;61.70
51476;DHT22;37554;50.362;7.568;2023-10-19T05:00:22;18.40;61.80
51476;DHT22;37554;50.362;7.568;2023-10-19T05:02:50;18.40;61.90
51476;DHT22;37554;50.362;7.568;2023-10-19T05:05:17;18.40;61.90
51476;DHT22;37554;50.362;7.568;2023-10-19T05:07:43;18.40;62.00
51476;DHT22;37554;50.362;7.568;2023-10-19T05:10:09;18.40;62.00
51476;DHT22;37554;50.362;7.568;2023-10-19T05:12:35;18.30;62.00
51476;DHT22;37554;50.362;7.568;2023-10-19T05:15:00;18.40;62.10
51476;DHT22;37554;50.362;7.568;2023-10-19T05:17:26;18.40;62.10
51476;DHT22;37554;50.362;7.568;2023-10-19T05:19:52;18.40;62.20
51476;DHT22;37554;50.362;7.568;2023-10-19T05:22:18;18.40;62.20
51476;DHT22;37554;50.362;7.568;2023-10-19T05:24:44;18.40;62.20
51476;DHT22;37554;50.362;7.568;2023-10-19T05:27:11;18.30;62.30
51476;DHT22;37554;50.362;7.568;2023-10-19T05:29:37;18.30;62.30
51476;DHT22;37554;50.362;7.568;2023-10-19T05:32:04;18.40;62.40
51476;DHT22;37554;50.362;7.568;2023-10-19T05:34:29;18.30;62.50
51476;DHT22;37554;50.362;7.568;2023-10-19T05:36:57;18.30;62.50
51476;DHT22;37554;50.362;7.568;2023-10-19T05:39:24;18.30;62.60
51476;DHT22;37554;50.362;7.568;2023-10-19T05:41:54;18.10;63.60
51476;DHT22;37554;50.362;7.568;2023-10-19T05:44:21;17.90;64.90
51476;DHT22;37554;50.362;7.568;2023-10-19T05:46:46;17.80;65.70
51476;DHT22;37554;50.362;7.568;2023-10-19T05:49:12;17.70;66.30
51476;DHT22;37554;50.362;7.568;2023-10-19T05:51:38;17.70;66.90
51476;DHT22;37554;50.362;7.568;2023-10-19T05:54:04;17.60;67.30
51476;DHT22;37554;50.362;7.568;2023-10-19T05:56:31;17.70;67.10
51476;DHT22;37554;50.362;7.568;2023-10-19T05:58:57;17.90;66.60
51476;DHT22;37554;50.362;7.568;2023-10-19T06:01:23;18.00;66.30
51476;DHT22;37554;50.362;7.568;2023-10-19T06:03:49;18.10;65.90
51476;DHT22;37554;50.362;7.568;2023-10-19T06:06:16;18.10;65.60
51476;DHT22;37554;50.362;7.568;2023-10-19T06:08:41;18.10;65.40
51476;DHT22;37554;50.362;7.568;2023-10-19T06:11:07;18.20;65.40
51476;DHT22;37554;50.362;7.568;2023-10-19T06:13:32;18.20;65.20
51476;DHT22;37554;50.362;7.568;2023-10-19T06:15:58;18.20;65.10
51476;DHT22;37554;50.362;7.568;2023-10-19T06:18:24;18.20;65.00
51476;DHT22;37554;50.362;7.568;2023-10-19T06:20:50;18.30;64.90
51476;DHT22;37554;50.362;7.568;2023-10-19T06:23:17;18.30;64.80
51476;DHT22;37554;50.362;7.568;2023-10-19T06:25:43;18.30;64.70
51476;DHT22;37554;50.362;7.568;2023-10-19T06:28:09;18.30;64.60
51476;DHT22;37554;50.362;7.568;2023-10-19T06:30:36;18.30;64.60
51476;DHT22;37554;50.362;7.568;2023-10-19T06:33:02;18.30;64.60
51476;DHT22;37554;50.362;7.568;2023-10-19T06:35:29;18.30;64.50
51476;DHT22;37554;50.362;7.568;2023-10-19T06:37:57;18.30;64.40
51476;DHT22;37554;50.362;7.568;2023-10-19T06:40:24;18.30;64.40
51476;DHT22;37554;50.362;7.568;2023-10-19T06:42:54;18.30;64.40
51476;DHT22;37554;50.362;7.568;2023-10-19T06:45:21;18.30;64.30
51476;DHT22;37554;50.362;7.568;2023-10-19T06:47:48;18.40;64.30
51476;DHT22;37554;50.362;7.568;2023-10-19T06:50:19;18.40;64.30
51476;DHT22;37554;50.362;7.568;2023-10-19T06:52:45;18.40;64.90
51476;DHT22;37554;50.362;7.568;2023-10-19T06:55:14;18.40;64.20
51476;DHT22;37554;50.362;7.568;2023-10-19T06:57:48;18.40;64.20
51476;DHT22;37554;50.362;7.568;2023-10-19T07:00:16;18.40;64.20
51476;DHT22;37554;50.362;7.568;2023-10-19T07:02:45;18.40;64.20
51476;DHT22;37554;50.362;7.568;2023-10-19T07:05:12;18.40;64.10
51476;DHT22;37554;50.362;7.568;2023-10-19T07:07:42;18.40;64.10
51476;DHT22;37554;50.362;7.568;2023-10-19T07:10:18;18.50;64.10
51476;DHT22;37554;50.362;7.568;2023-10-19T07:12:46;18.50;64.20
51476;DHT22;37554;50.362;7.568;2023-10-19T07:15:12;18.50;64.00
51476;DHT22;37554;50.362;7.568;2023-10-19T07:17:44;18.50;64.00
51476;DHT22;37554;50.362;7.568;2023-10-19T07:20:12;18.60;64.10
51476;DHT22;37554;50.362;7.568;2023-10-19T07:23:00;18.50;63.90
51476;DHT22;37554;50.362;7.568;2023-10-19T07:25:33;18.60;64.00
51476;DHT22;37554;50.362;7.568;2023-10-19T07:28:06;18.60;63.90
51476;DHT22;37554;50.362;7.568;2023-10-19T07:30:31;18.60;63.90
51476;DHT22;37554;50.362;7.568;2023-10-19T07:32:57;18.70;64.30
51476;DHT22;37554;50.362;7.568;2023-10-19T07:35:27;18.70;64.40
51476;DHT22;37554;50.362;7.568;2023-10-19T07:37:54;18.70;64.10
51476;DHT22;37554;50.362;7.568;2023-10-19T07:40:20;18.80;64.00
51476;DHT22;37554;50.362;7.568;2023-10-19T07:42:46;18.80;63.80
51476;DHT22;37554;50.362;7.568;2023-10-19T07:45:12;18.90;63.80
51476;DHT22;37554;50.362;7.568;2023-10-19T07:47:41;18.90;63.60
51476;DHT22;37554;50.362;7.568;2023-10-19T07:50:08;19.00;63.60
51476;DHT22;37554;50.362;7.568;2023-10-19T07:52:38;19.00;63.50
51476;DHT22;37554;50.362;7.568;2023-10-19T07:55:05;19.00;63.50
51476;DHT22;37554;50.362;7.568;2023-10-19T07:57:32;19.10;63.40
51476;DHT22;37554;50.362;7.568;2023-10-19T07:59:59;19.10;63.70
51476;DHT22;37554;50.362;7.568;2023-10-19T08:02:25;19.20;63.50
51476;DHT22;37554;50.362;7.568;2023-10-19T08:04:51;19.20;63.40
51476;DHT22;37554;50.362;7.568;2023-10-19T08:07:17;19.30;63.20
51476;DHT22;37554;50.362;7.568;2023-10-19T08:09:43;19.30;63.30
51476;DHT22;37554;50.362;7.568;2023-10-19T08:12:09;19.30;63.30
51476;DHT22;37554;50.362;7.568;2023-10-19T08:14:36;19.30;63.40
51476;DHT22;37554;50.362;7.568;2023-10-19T08:17:02;19.30;63.50
51476;DHT22;37554;50.362;7.568;2023-10-19T08:19:28;19.40;63.40
51476;DHT22;37554;50.362;7.568;2023-10-19T08:21:56;19.60;63.40
51476;DHT22;37554;50.362;7.568;2023-10-19T08:24:23;19.70;63.20
51476;DHT22;37554;50.362;7.568;2023-10-19T08:26:49;19.80;62.90
51476;DHT22;37554;50.362;7.568;2023-10-19T08:29:16;20.00;62.80
51476;DHT22;37554;50.362;7.568;2023-10-19T08:31:43;20.10;62.60
51476;DHT22;37554;50.362;7.568;2023-10-19T08:34:11;20.10;62.50
51476;DHT22;37554;50.362;7.568;2023-10-19T08:36:37;20.20;62.60
51476;DHT22;37554;50.362;7.568;2023-10-19T08:39:07;20.20;62.60
51476;DHT22;37554;50.362;7.568;2023-10-19T08:41:34;20.30;62.60
51476;DHT22;37554;50.362;7.568;2023-10-19T08:44:04;20.30;62.60
51476;DHT22;37554;50.362;7.568;2023-10-19T08:46:38;20.30;62.60
51476;DHT22;37554;50.362;7.568;2023-10-19T08:49:06;20.30;62.50
51476;DHT22;37554;50.362;7.568;2023-10-19T08:51:37;20.40;62.50
51476;DHT22;37554;50.362;7.568;2023-10-19T08:54:04;20.50;62.30
51476;DHT22;37554;50.362;7.568;2023-10-19T08:56:31;20.80;62.00
51476;DHT22;37554;50.362;7.568;2023-10-19T08:58:59;20.90;61.70
51476;DHT22;37554;50.362;7.568;2023-10-19T09:01:27;21.00;61.50
51476;DHT22;37554;50.362;7.568;2023-10-19T09:03:53;21.00;61.40
51476;DHT22;37554;50.362;7.568;2023-10-19T09:06:22;21.10;61.40
51476;DHT22;37554;50.362;7.568;2023-10-19T09:08:47;21.10;61.20
51476;DHT22;37554;50.362;7.568;2023-10-19T09:11:14;21.20;61.20
51476;DHT22;37554;50.362;7.568;2023-10-19T09:13:51;21.30;61.10
51476;DHT22;37554;50.362;7.568;2023-10-19T09:16:21;21.40;61.10
51476;DHT22;37554;50.362;7.568;2023-10-19T09:18:48;21.50;60.80
51476;DHT22;37554;50.362;7.568;2023-10-19T09:21:18;21.70;60.80
51476;DHT22;37554;50.362;7.568;2023-10-19T09:23:57;21.80;60.70
51476;DHT22;37554;50.362;7.568;2023-10-19T09:26:24;22.00;60.70
51476;DHT22;37554;50.362;7.568;2023-10-19T09:28:51;22.20;60.60
51476;DHT22;37554;50.362;7.568;2023-10-19T09:31:18;22.30;60.50
51476;DHT22;37554;50.362;7.568;2023-10-19T09:33:47;22.40;60.40
51476;DHT22;37554;50.362;7.568;2023-10-19T09:36:14;22.40;60.30
51476;DHT22;37554;50.362;7.568;2023-10-19T09:38:50;22.40;60.40
51476;DHT22;37554;50.362;7.568;2023-10-19T09:41:21;22.30;60.70
51476;DHT22;37554;50.362;7.568;2023-10-19T09:43:48;22.40;60.70
51476;DHT22;37554;50.362;7.568;2023-10-19T09:46:27;22.50;60.80
51476;DHT22;37554;50.362;7.568;2023-10-19T09:48:54;22.60;60.90
51476;DHT22;37554;50.362;7.568;2023-10-19T09:51:20;22.60;60.50
51476;DHT22;37554;50.362;7.568;2023-10-19T09:54:34;22.60;60.60
51476;DHT22;37554;50.362;7.568;2023-10-19T09:56:46;22.60;60.70
51476;DHT22;37554;50.362;7.568;2023-10-19T09:59:32;22.60;60.80
51476;DHT22;37554;50.362;7.568;2023-10-19T10:02:08;22.60;60.80
51476;DHT22;37554;50.362;7.568;2023-10-19T10:04:36;22.90;60.50
51476;DHT22;37554;50.362;7.568;2023-10-19T10:07:04;23.10;60.20
51476;DHT22;37554;50.362;7.568;2023-10-19T10:09:39;23.30;59.80
51476;DHT22;37554;50.362;7.568;2023-10-19T10:12:20;23.40;59.30
51476;DHT22;37554;50.362;7.568;2023-10-19T10:15:05;23.40;59.20
51476;DHT22;37554;50.362;7.568;2023-10-19T10:17:39;23.30;59.50
51476;DHT22;37554;50.362;7.568;2023-10-19T10:22:40;23.10;59.90
51476;DHT22;37554;50.362;7.568;2023-10-19T10:25:25;23.00;59.90
51476;DHT22;37554;50.362;7.568;2023-10-19T10:27:51;22.80;60.40
51476;DHT22;37554;50.362;7.568;2023-10-19T10:30:17;22.70;60.40
51476;DHT22;37554;50.362;7.568;2023-10-19T10:32:52;22.60;60.80
51476;DHT22;37554;50.362;7.568;2023-10-19T10:38:10;22.40;61.50
51476;DHT22;37554;50.362;7.568;2023-10-19T10:40:48;22.30;61.40
51476;DHT22;37554;50.362;7.568;2023-10-19T10:43:14;22.30;61.70
51476;DHT22;37554;50.362;7.568;2023-10-19T10:45:41;22.20;61.60
51476;DHT22;37554;50.362;7.568;2023-10-19T10:48:16;22.20;61.60
51476;DHT22;37554;50.362;7.568;2023-10-19T10:50:42;22.20;61.70
51476;DHT22;37554;50.362;7.568;2023-10-19T10:53:10;22.20;61.50
51476;DHT22;37554;50.362;7.568;2023-10-19T10:55:37;22.20;61.60
51476;DHT22;37554;50.362;7.568;2023-10-19T10:58:03;22.20;61.60
51476;DHT22;37554;50.362;7.568;2023-10-19T11:00:28;22.20;61.60
51476;DHT22;37554;50.362;7.568;2023-10-19T11:03:03;22.10;61.60
51476;DHT22;37554;50.362;7.568;2023-10-19T11:05:30;22.10;61.60
51476;DHT22;37554;50.362;7.568;2023-10-19T11:08:12;22.10;61.70
51476;DHT22;37554;50.362;7.568;2023-10-19T11:10:39;22.20;61.70
51476;DHT22;37554;50.362;7.568;2023-10-19T11:13:11;22.30;61.40
51476;DHT22;37554;50.362;7.568;2023-10-19T11:15:39;22.30;61.20
51476;DHT22;37554;50.362;7.568;2023-10-19T11:20:56;22.60;60.90
51476;DHT22;37554;50.362;7.568;2023-10-19T11:23:44;22.90;60.20
51476;DHT22;37554;50.362;7.568;2023-10-19T11:26:11;23.10;60.10
51476;DHT22;37554;50.362;7.568;2023-10-19T11:28:38;23.20;59.70
51476;DHT22;37554;50.362;7.568;2023-10-19T11:31:21;23.30;59.50
51476;DHT22;37554;50.362;7.568;2023-10-19T11:33:53;23.90;58.70
51476;DHT22;37554;50.362;7.568;2023-10-19T11:36:21;24.50;57.40
51476;DHT22;37554;50.362;7.568;2023-10-19T11:38:49;24.60;56.70
51476;DHT22;37554;50.362;7.568;2023-10-19T11:41:17;24.70;56.50
51476;DHT22;37554;50.362;7.568;2023-10-19T11:43:45;24.70;56.30
51476;DHT22;37554;50.362;7.568;2023-10-19T11:46:12;24.70;56.20
51476;DHT22;37554;50.362;7.568;2023-10-19T11:48:38;24.60;56.20
51476;DHT22;37554;50.362;7.568;2023-10-19T11:51:05;24.30;56.60
51476;DHT22;37554;50.362;7.568;2023-10-19T11:53:35;23.80;57.40
51476;DHT22;37554;50.362;7.568;2023-10-19T11:56:09;23.60;58.30
51476;DHT22;37554;50.362;7.568;2023-10-19T11:58:34;23.30;59.00
51476;DHT22;37554;50.362;7.568;2023-10-19T12:01:04;23.10;59.70
51476;DHT22;37554;50.362;7.568;2023-10-19T12:03:36;23.00;59.70
51476;DHT22;37554;50.362;7.568;2023-10-19T12:06:04;22.90;60.00
51476;DHT22;37554;50.362;7.568;2023-10-19T12:08:32;22.80;60.20
51476;DHT22;37554;50.362;7.568;2023-10-19T12:10:58;22.70;60.40
51476;DHT22;37554;50.362;7.568;2023-10-19T12:13:24;22.70;60.60
51476;DHT22;37554;50.362;7.568;2023-10-19T12:15:50;22.60;60.70
51476;DHT22;37554;50.362;7.568;2023-10-19T12:18:20;22.60;60.80
51476;DHT22;37554;50.362;7.568;2023-10-19T12:20:47;22.50;61.50
51476;DHT22;37554;50.362;7.568;2023-10-19T12:23:13;22.50;60.90
51476;DHT22;37554;50.362;7.568;2023-10-19T12:25:40;22.40;60.90
51476;DHT22;37554;50.362;7.568;2023-10-19T12:28:07;22.40;60.90
51476;DHT22;37554;50.362;7.568;2023-10-19T12:30:33;22.40;60.80
51476;DHT22;37554;50.362;7.568;2023-10-19T12:33:03;22.40;60.80
51476;DHT22;37554;50.362;7.568;2023-10-19T12:35:33;22.30;60.80
51476;DHT22;37554;50.362;7.568;2023-10-19T12:38:11;22.30;61.00
51476;DHT22;37554;50.362;7.568;2023-10-19T12:40:42;22.20;61.10
51476;DHT22;37554;50.362;7.568;2023-10-19T12:43:08;22.20;61.30
51476;DHT22;37554;50.362;7.568;2023-10-19T12:45:36;22.10;61.30
51476;DHT22;37554;50.362;7.568;2023-10-19T12:48:05;22.10;61.40
51476;DHT22;37554;50.362;7.568;2023-10-19T12:50:32;22.10;61.50
51476;DHT22;37554;50.362;7.568;2023-10-19T12:52:59;22.00;61.60
51476;DHT22;37554;50.362;7.568;2023-10-19T12:55:26;22.00;61.80
51476;DHT22;37554;50.362;7.568;2023-10-19T12:57:53;22.00;61.90
51476;DHT22;37554;50.362;7.568;2023-10-19T13:00:18;22.00;62.00
51476;DHT22;37554;50.362;7.568;2023-10-19T13:03:01;22.00;62.00
51476;DHT22;37554;50.362;7.568;2023-10-19T13:05:32;22.00;62.10
51476;DHT22;37554;50.362;7.568;2023-10-19T13:07:58;22.10;61.90
51476;DHT22;37554;50.362;7.568;2023-10-19T13:10:28;22.20;61.70
51476;DHT22;37554;50.362;7.568;2023-10-19T13:13:04;22.30;61.60
51476;DHT22;37554;50.362;7.568;2023-10-19T13:17:57;22.30;61.30
51476;DHT22;37554;50.362;7.568;2023-10-19T13:20:25;22.30;61.30
51476;DHT22;37554;50.362;7.568;2023-10-19T13:22:52;22.20;61.30
51476;DHT22;37554;50.362;7.568;2023-10-19T13:25:17;22.20;61.40
51476;DHT22;37554;50.362;7.568;2023-10-19T13:27:44;22.20;61.50
51476;DHT22;37554;50.362;7.568;2023-10-19T13:30:11;22.20;61.60
51476;DHT22;37554;50.362;7.568;2023-10-19T13:32:37;22.20;61.70
51476;DHT22;37554;50.362;7.568;2023-10-19T13:35:04;22.10;61.80
51476;DHT22;37554;50.362;7.568;2023-10-19T13:37:30;22.10;61.90
51476;DHT22;37554;50.362;7.568;2023-10-19T13:39:57;22.10;62.10
51476;DHT22;37554;50.362;7.568;2023-10-19T13:42:22;22.00;62.30
51476;DHT22;37554;50.362;7.568;2023-10-19T13:44:48;22.00;62.50
51476;DHT22;37554;50.362;7.568;2023-10-19T13:47:14;22.00;62.50
51476;DHT22;37554;50.362;7.568;2023-10-19T13:49:41;21.90;62.60
51476;DHT22;37554;50.362;7.568;2023-10-19T13:52:07;21.90;62.70
51476;DHT22;37554;50.362;7.568;2023-10-19T13:54:34;21.90;62.70
51476;DHT22;37554;50.362;7.568;2023-10-19T13:57:02;21.90;62.80
51476;DHT22;37554;50.362;7.568;2023-10-19T13:59:30;21.80;62.70
51476;DHT22;37554;50.362;7.568;2023-10-19T14:01:59;21.80;62.70
51476;DHT22;37554;50.362;7.568;2023-10-19T14:04:24;21.80;62.60
51476;DHT22;37554;50.362;7.568;2023-10-19T14:06:50;21.80;62.50
51476;DHT22;37554;50.362;7.568;2023-10-19T14:09:16;21.80;62.30
51476;DHT22;37554;50.362;7.568;2023-10-19T14:11:43;21.70;62.10
51476;DHT22;37554;50.362;7.568;2023-10-19T14:14:10;21.80;62.00
51476;DHT22;37554;50.362;7.568;2023-10-19T14:16:36;21.70;61.80
51476;DHT22;37554;50.362;7.568;2023-10-19T14:19:04;21.70;61.70
51476;DHT22;37554;50.362;7.568;2023-10-19T14:21:30;21.70;61.70
51476;DHT22;37554;50.362;7.568;2023-10-19T14:23:56;21.70;61.70
51476;DHT22;37554;50.362;7.568;2023-10-19T14:26:22;21.70;61.70
51476;DHT22;37554;50.362;7.568;2023-10-19T14:28:47;21.70;61.60
51476;DHT22;37554;50.362;7.568;2023-10-19T14:31:13;21.70;61.60
51476;DHT22;37554;50.362;7.568;2023-10-19T14:33:39;21.80;61.60
51476;DHT22;37554;50.362;7.568;2023-10-19T14:36:05;21.80;61.60
51476;DHT22;37554;50.362;7.568;2023-10-19T14:38:31;21.80;61.60
51476;DHT22;37554;50.362;7.568;2023-10-19T14:40:58;21.70;61.60
51476;DHT22;37554;50.362;7.568;2023-10-19T14:43:24;21.70;61.70
51476;DHT22;37554;50.362;7.568;2023-10-19T14:45:51;21.80;61.70
51476;DHT22;37554;50.362;7.568;2023-10-19T14:48:17;21.80;61.80
51476;DHT22;37554;50.362;7.568;2023-10-19T14:50:44;21.80;61.90
51476;DHT22;37554;50.362;7.568;2023-10-19T14:53:10;21.80;61.90
51476;DHT22;37554;50.362;7.568;2023-10-19T14:55:37;21.80;61.80
51476;DHT22;37554;50.362;7.568;2023-10-19T14:58:03;21.80;61.80
51476;DHT22;37554;50.362;7.568;2023-10-19T15:00:31;21.80;61.90
51476;DHT22;37554;50.362;7.568;2023-10-19T15:03:03;21.90;62.00
51476;DHT22;37554;50.362;7.568;2023-10-19T15:05:33;22.40;62.10
51476;DHT22;37554;50.362;7.568;2023-10-19T15:08:03;22.70;60.50
51476;DHT22;37554;50.362;7.568;2023-10-19T15:10:30;23.30;59.40
51476;DHT22;37554;50.362;7.568;2023-10-19T15:12:57;23.50;58.50
51476;DHT22;37554;50.362;7.568;2023-10-19T15:15:27;23.40;58.50
51476;DHT22;37554;50.362;7.568;2023-10-19T15:17:53;23.40;58.80
51476;DHT22;37554;50.362;7.568;2023-10-19T15:20:23;23.40;58.70
51476;DHT22;37554;50.362;7.568;2023-10-19T15:22:50;23.20;58.90
51476;DHT22;37554;50.362;7.568;2023-10-19T15:25:16;23.20;59.30
51476;DHT22;37554;50.362;7.568;2023-10-19T15:27:46;23.10;59.40
51476;DHT22;37554;50.362;7.568;2023-10-19T15:30:13;23.00;59.60
51476;DHT22;37554;50.362;7.568;2023-10-19T15:32:41;23.00;59.70
51476;DHT22;37554;50.362;7.568;2023-10-19T15:35:11;22.90;59.90
51476;DHT22;37554;50.362;7.568;2023-10-19T15:37:37;22.90;59.90
51476;DHT22;37554;50.362;7.568;2023-10-19T15:40:04;22.80;60.00
51476;DHT22;37554;50.362;7.568;2023-10-19T15:42:30;22.70;60.20
51476;DHT22;37554;50.362;7.568;2023-10-19T15:44:56;22.70;60.40
51476;DHT22;37554;50.362;7.568;2023-10-19T15:47:21;22.60;60.70
51476;DHT22;37554;50.362;7.568;2023-10-19T15:49:49;22.50;60.70
51476;DHT22;37554;50.362;7.568;2023-10-19T15:52:22;22.50;61.00
51476;DHT22;37554;50.362;7.568;2023-10-19T15:54:49;22.40;61.10